Time;durP1;ratioP1;P1;durP2;ratioP2;P2;SDS_P1;SDS_P2;PMS_P1;PMS_P2;Temp;Humidity;BMP_temperature;BMP_pressure;BME280_temperature;BME280_humidity;BME280_pressure;Samples;Min_cycle;Max_cycle;Signal;HPM_P1;HPM_P2
2021/03/05 00:01:14;;;;;;;7.97;6.10;;;;;;;;;;4987003;28;20570;-57
2021/03/05 00:03:40;;;;;;;8.50;6.07;;;;;;;;;;4987633;28;20041;-56
2021/03/05 00:06:06;;;;;;;10.10;6.20;;;;;;;;;;4987408;28;20053;-56
2021/03/05 00:08:31;;;;;;;9.30;6.55;;;;;;;;;;4984711;28;20496;-53
2021/03/05 00:10:57;;;;;;;10.48;6.03;;;;;;;;;;4985224;28;20348;-56
2021/03/05 00:13:24;;;;;;;7.35;5.80;;;;;;;;;;4986210;28;20026;-55
2021/03/05 00:15:51;;;;;;;7.57;5.80;;;;;;;;;;4987031;28;20527;-56
2021/03/05 00:18:17;;;;;;;7.90;6.13;;;;;;;;;;4985182;28;20456;-56
2021/03/05 00:20:46;;;;;;;7.63;6.20;;;;;;;;;;4987034;28;20105;-55
2021/03/05 00:23:11;;;;;;;7.05;5.93;;;;;;;;;;4986988;28;20033;-55
2021/03/05 00:25:37;;;;;;;7.07;6.05;;;;;;;;;;4984964;28;20042;-54
2021/03/05 00:28:03;;;;;;;7.30;6.15;;;;;;;;;;4987536;28;20432;-58
2021/03/05 00:30:29;;;;;;;9.23;6.60;;;;;;;;;;4985673;28;20109;-57
2021/03/05 00:32:55;;;;;;;9.60;6.53;;;;;;;;;;4982696;28;20109;-57
2021/03/05 00:35:21;;;;;;;8.55;6.97;;;;;;;;;;4985606;28;20117;-56
2021/03/05 00:37:47;;;;;;;7.25;6.40;;;;;;;;;;4985585;28;20090;-55
2021/03/05 00:40:15;;;;;;;8.40;7.13;;;;;;;;;;4986081;28;20476;-57
2021/03/05 00:42:42;;;;;;;8.63;7.28;;;;;;;;;;4984878;28;20045;-55
2021/03/05 00:45:09;;;;;;;10.13;7.47;;;;;;;;;;4986433;28;20034;-56
2021/03/05 00:47:34;;;;;;;9.70;7.63;;;;;;;;;;4984649;28;20022;-55
2021/03/05 00:50:00;;;;;;;9.73;7.68;;;;;;;;;;4986753;28;20025;-56
2021/03/05 00:52:25;;;;;;;9.52;7.07;;;;;;;;;;4983922;28;20487;-54
2021/03/05 00:54:51;;;;;;;11.23;8.15;;;;;;;;;;4984311;28;20069;-56
2021/03/05 00:57:16;;;;;;;10.05;7.70;;;;;;;;;;4985993;28;20030;-56
2021/03/05 00:59:42;;;;;;;9.48;7.57;;;;;;;;;;4985888;28;20026;-54
2021/03/05 01:02:07;;;;;;;12.68;7.57;;;;;;;;;;4985614;28;20112;-56
2021/03/05 01:04:32;;;;;;;9.02;7.15;;;;;;;;;;4964542;28;604602;-54
2021/03/05 01:06:58;;;;;;;10.35;8.18;;;;;;;;;;4987314;28;20103;-56
2021/03/05 01:09:23;;;;;;;8.63;7.43;;;;;;;;;;4983835;28;20117;-56
2021/03/05 01:11:49;;;;;;;9.10;7.07;;;;;;;;;;4985499;28;20030;-56
2021/03/05 01:14:15;;;;;;;9.18;7.43;;;;;;;;;;4986522;28;20042;-55
2021/03/05 01:16:40;;;;;;;7.55;6.75;;;;;;;;;;4986858;28;20026;-57
2021/03/05 01:19:08;;;;;;;8.48;7.22;;;;;;;;;;4986291;28;20515;-54
2021/03/05 01:21:33;;;;;;;7.93;6.93;;;;;;;;;;4985974;28;20035;-57
2021/03/05 01:23:59;;;;;;;9.65;7.28;;;;;;;;;;4986677;28;20360;-56
2021/03/05 01:26:24;;;;;;;22.02;14.90;;;;;;;;;;4985775;28;20048;-55
2021/03/05 01:28:50;;;;;;;10.68;7.35;;;;;;;;;;4985746;28;20030;-55
2021/03/05 01:31:15;;;;;;;8.13;7.13;;;;;;;;;;4987420;28;20468;-56
2021/03/05 01:33:41;;;;;;;10.18;7.53;;;;;;;;;;4986918;28;20466;-54
2021/03/05 01:36:08;;;;;;;8.35;6.85;;;;;;;;;;4987129;28;20034;-54
2021/03/05 01:38:33;;;;;;;9.50;7.57;;;;;;;;;;4985300;28;20071;-55
2021/03/05 01:40:59;;;;;;;8.15;7.32;;;;;;;;;;4986866;28;20108;-55
2021/03/05 01:43:28;;;;;;;10.52;7.80;;;;;;;;;;4985588;28;20363;-56
2021/03/05 01:45:54;;;;;;;8.98;8.02;;;;;;;;;;4986184;28;20037;-56
2021/03/05 01:48:21;;;;;;;8.45;7.30;;;;;;;;;;4984682;28;20030;-55
2021/03/05 01:51:09;;;;;;;8.90;7.40;;;;;;;;;;4986999;28;20511;-55
2021/03/05 01:53:35;;;;;;;8.85;7.50;;;;;;;;;;5006881;28;20030;-55
2021/03/05 01:56:02;;;;;;;10.38;8.23;;;;;;;;;;4984943;28;20036;-54
2021/03/05 01:58:28;;;;;;;9.25;8.02;;;;;;;;;;4985792;28;20049;-54
2021/03/05 02:00:59;;;;;;;8.30;7.40;;;;;;;;;;4990285;28;20030;-57
2021/03/05 02:03:25;;;;;;;9.32;7.40;;;;;;;;;;4988677;28;20069;-54
2021/03/05 02:05:50;;;;;;;10.85;8.32;;;;;;;;;;4988539;28;20046;-56
2021/03/05 02:08:15;;;;;;;12.07;8.32;;;;;;;;;;4989216;28;20084;-53
2021/03/05 02:10:41;;;;;;;10.38;7.28;;;;;;;;;;4989590;28;20030;-52
2021/03/05 02:13:08;;;;;;;9.23;7.93;;;;;;;;;;4989541;28;20499;-51
2021/03/05 02:15:36;;;;;;;11.27;8.35;;;;;;;;;;4986621;28;20031;-55
2021/03/05 02:18:13;;;;;;;10.50;9.00;;;;;;;;;;4989952;28;20030;-53
2021/03/05 02:20:48;;;;;;;11.18;8.45;;;;;;;;;;4989905;28;20039;-54
2021/03/05 02:23:40;;;;;;;11.48;8.43;;;;;;;;;;4989240;28;20037;-56
2021/03/05 02:26:52;;;;;;;11.82;8.30;;;;;;;;;;4988973;28;20042;-53
2021/03/05 02:29:39;;;;;;;10.18;7.50;;;;;;;;;;4989363;28;20027;-54
2021/03/05 02:32:12;;;;;;;10.93;8.85;;;;;;;;;;4987744;28;20042;-53
2021/03/05 02:34:45;;;;;;;10.80;8.20;;;;;;;;;;4989524;28;20479;-54
2021/03/05 02:37:11;;;;;;;9.77;7.97;;;;;;;;;;4989542;28;20129;-54
2021/03/05 02:39:48;;;;;;;9.77;8.75;;;;;;;;;;4988218;28;20035;-56
2021/03/05 02:42:22;;;;;;;10.70;8.68;;;;;;;;;;4988994;28;20087;-56
2021/03/05 02:44:53;;;;;;;11.30;9.27;;;;;;;;;;4989194;28;20084;-55
2021/03/05 02:47:21;;;;;;;12.48;8.75;;;;;;;;;;4987574;28;20055;-54
2021/03/05 02:49:48;;;;;;;10.73;8.88;;;;;;;;;;4985954;28;20360;-55
2021/03/05 02:52:17;;;;;;;11.05;8.68;;;;;;;;;;4988683;28;20030;-53
2021/03/05 02:54:48;;;;;;;10.38;8.80;;;;;;;;;;4988874;28;20034;-52
2021/03/05 02:57:16;;;;;;;10.52;8.85;;;;;;;;;;4987806;28;20026;-55
2021/03/05 02:59:42;;;;;;;12.05;9.65;;;;;;;;;;4987986;28;20030;-56
2021/03/05 03:02:10;;;;;;;12.77;10.20;;;;;;;;;;4988935;28;20045;-56
2021/03/05 03:04:36;;;;;;;15.15;10.18;;;;;;;;;;4986639;28;20031;-55
2021/03/05 03:07:02;;;;;;;13.68;10.70;;;;;;;;;;4988888;28;20023;-56
2021/03/05 03:09:29;;;;;;;12.55;10.57;;;;;;;;;;4985759;28;20484;-55
2021/03/05 03:11:54;;;;;;;12.63;10.32;;;;;;;;;;4985360;28;20034;-56
2021/03/05 03:14:20;;;;;;;13.90;9.02;;;;;;;;;;4988578;28;20353;-55
2021/03/05 03:16:46;;;;;;;12.90;10.18;;;;;;;;;;4987211;28;20054;-54
2021/03/05 03:19:15;;;;;;;13.23;10.52;;;;;;;;;;4986882;28;20489;-56
2021/03/05 03:21:41;;;;;;;13.45;10.18;;;;;;;;;;4988160;28;20459;-55
2021/03/05 03:24:08;;;;;;;13.30;10.13;;;;;;;;;;4988853;28;20041;-54
2021/03/05 03:26:38;;;;;;;13.70;10.90;;;;;;;;;;4987722;28;20038;-52
2021/03/05 03:29:08;;;;;;;12.43;10.35;;;;;;;;;;4987371;28;20073;-56
2021/03/05 03:31:33;;;;;;;15.65;11.98;;;;;;;;;;4987968;28;20038;-54
2021/03/05 03:34:03;;;;;;;16.42;12.80;;;;;;;;;;4988640;28;20030;-55
2021/03/05 03:36:29;;;;;;;16.67;11.50;;;;;;;;;;4986142;28;20056;-57
2021/03/05 03:38:55;;;;;;;15.32;12.15;;;;;;;;;;4988399;28;20573;-53
2021/03/05 03:41:20;;;;;;;15.02;12.18;;;;;;;;;;4986882;28;20551;-56
2021/03/05 03:43:46;;;;;;;14.95;12.77;;;;;;;;;;4987870;28;20038;-57
2021/03/05 03:46:11;;;;;;;15.70;12.90;;;;;;;;;;4987989;28;20117;-56
2021/03/05 03:48:43;;;;;;;15.60;12.38;;;;;;;;;;4987603;28;20033;-54
2021/03/05 03:51:11;;;;;;;21.23;12.70;;;;;;;;;;4988976;28;20034;-55
2021/03/05 03:53:38;;;;;;;20.98;14.05;;;;;;;;;;4986938;28;20035;-55
2021/03/05 03:56:09;;;;;;;13.68;11.90;;;;;;;;;;4988268;28;20058;-55
2021/03/05 03:58:36;;;;;;;;;;;;;;;;;;4987344;28;20031;-54
2021/03/05 04:01:06;;;;;;;10.77;9.13;;;;;;;;;;4985297;28;19913;-56
2021/03/05 04:03:33;;;;;;;13.45;8.80;;;;;;;;;;4986466;28;20026;-57
2021/03/05 04:05:59;;;;;;;11.00;8.73;;;;;;;;;;4987038;28;20030;-56
2021/03/05 04:08:26;;;;;;;13.82;9.40;;;;;;;;;;4986604;28;20026;-54
2021/03/05 04:10:52;;;;;;;12.82;9.40;;;;;;;;;;4987844;28;20124;-55
2021/03/05 04:13:18;;;;;;;12.43;9.30;;;;;;;;;;4987010;28;20380;-56
2021/03/05 04:15:44;;;;;;;15.38;10.00;;;;;;;;;;4987930;28;20045;-56
2021/03/05 04:18:10;;;;;;;14.93;9.20;;;;;;;;;;4985577;28;20049;-56
2021/03/05 04:20:38;;;;;;;13.98;10.10;;;;;;;;;;4986042;28;20058;-56
2021/03/05 04:23:06;;;;;;;14.38;10.80;;;;;;;;;;4987246;28;20061;-56
2021/03/05 04:25:32;;;;;;;13.02;10.52;;;;;;;;;;4985548;28;20041;-54
2021/03/05 04:27:57;;;;;;;13.45;10.35;;;;;;;;;;4986862;28;20018;-54
2021/03/05 04:30:23;;;;;;;14.85;10.95;;;;;;;;;;4986598;28;20038;-54
2021/03/05 04:32:49;;;;;;;13.25;10.60;;;;;;;;;;4986573;28;20111;-53
2021/03/05 04:35:14;;;;;;;14.52;9.48;;;;;;;;;;4986361;28;20042;-54
2021/03/05 04:37:40;;;;;;;11.48;8.65;;;;;;;;;;4986982;28;20555;-55
2021/03/05 04:40:07;;;;;;;14.20;9.93;;;;;;;;;;4987042;28;20026;-57
2021/03/05 04:42:33;;;;;;;14.80;10.65;;;;;;;;;;4985020;28;20070;-55
2021/03/05 04:44:59;;;;;;;12.52;10.45;;;;;;;;;;4986037;28;20193;-60
2021/03/05 04:47:24;;;;;;;11.98;9.77;;;;;;;;;;4980241;28;20034;-64
2021/03/05 04:49:50;;;;;;;15.52;9.27;;;;;;;;;;4988101;28;20030;-64
2021/03/05 04:52:16;;;;;;;15.07;10.10;;;;;;;;;;4984534;28;20046;-65
2021/03/05 04:54:41;;;;;;;15.75;10.95;;;;;;;;;;4985146;28;20350;-66
2021/03/05 04:57:06;;;;;;;21.25;12.05;;;;;;;;;;4986137;28;20026;-64
2021/03/05 04:59:32;;;;;;;17.80;11.25;;;;;;;;;;4985589;28;20502;-65
2021/03/05 05:01:57;;;;;;;13.98;11.38;;;;;;;;;;4988838;28;20026;-64
2021/03/05 05:04:23;;;;;;;15.63;11.45;;;;;;;;;;4984977;28;20631;-65
2021/03/05 05:06:48;;;;;;;18.30;12.98;;;;;;;;;;4987057;28;20121;-65
2021/03/05 05:09:13;;;;;;;14.80;11.45;;;;;;;;;;4984798;28;20026;-65
2021/03/05 05:11:39;;;;;;;18.13;12.32;;;;;;;;;;4985069;28;20046;-64
2021/03/05 05:14:04;;;;;;;13.50;10.98;;;;;;;;;;4985279;28;20034;-65
2021/03/05 05:16:30;;;;;;;13.15;11.02;;;;;;;;;;4985482;28;20038;-65
2021/03/05 05:18:55;;;;;;;14.90;11.57;;;;;;;;;;4987106;28;20476;-64
2021/03/05 05:21:20;;;;;;;13.73;11.55;;;;;;;;;;4984847;28;20080;-64
2021/03/05 05:23:46;;;;;;;16.10;12.02;;;;;;;;;;4986377;28;20375;-65
2021/03/05 05:26:13;;;;;;;13.13;11.48;;;;;;;;;;4986804;28;20030;-64
2021/03/05 05:28:38;;;;;;;15.05;12.05;;;;;;;;;;4984418;28;20133;-64
2021/03/05 05:31:04;;;;;;;16.92;12.75;;;;;;;;;;4986127;28;20161;-64
2021/03/05 05:33:29;;;;;;;15.27;12.02;;;;;;;;;;4986473;28;20061;-64
2021/03/05 05:35:54;;;;;;;15.63;11.85;;;;;;;;;;4990358;28;20503;-65
2021/03/05 05:38:20;;;;;;;15.10;12.07;;;;;;;;;;4988268;28;20082;-64
2021/03/05 05:40:45;;;;;;;17.85;12.75;;;;;;;;;;4990703;28;20042;-64
2021/03/05 05:43:11;;;;;;;14.98;11.02;;;;;;;;;;4991640;28;20026;-64
2021/03/05 05:45:36;;;;;;;14.60;10.93;;;;;;;;;;4989484;28;20042;-64
2021/03/05 05:48:02;;;;;;;15.93;11.70;;;;;;;;;;4990399;28;20474;-64
2021/03/05 05:50:27;;;;;;;15.25;11.23;;;;;;;;;;4989436;28;20118;-64
2021/03/05 05:52:55;;;;;;;15.02;10.32;;;;;;;;;;4990368;28;20488;-65
2021/03/05 05:55:21;;;;;;;15.23;10.18;;;;;;;;;;4988829;28;20039;-64
2021/03/05 05:57:47;;;;;;;14.75;10.32;;;;;;;;;;4988023;28;20050;-64
2021/03/05 06:00:13;;;;;;;15.23;10.57;;;;;;;;;;4989539;28;20030;-64
2021/03/05 06:02:43;;;;;;;13.38;10.20;;;;;;;;;;4989053;28;20443;-65
2021/03/05 06:05:09;;;;;;;16.27;10.73;;;;;;;;;;4989122;28;20554;-65
2021/03/05 06:07:36;;;;;;;20.88;11.05;;;;;;;;;;4988986;28;20461;-65
2021/03/05 06:10:02;;;;;;;15.90;10.77;;;;;;;;;;4989347;28;20479;-65
2021/03/05 06:12:28;;;;;;;18.63;12.20;;;;;;;;;;4987753;28;20034;-65
2021/03/05 06:14:53;;;;;;;14.75;10.93;;;;;;;;;;4988598;28;20034;-65
2021/03/05 06:17:19;;;;;;;13.25;10.02;;;;;;;;;;4983927;28;20072;-65
2021/03/05 06:19:44;;;;;;;17.38;12.18;;;;;;;;;;4988932;28;20050;-65
2021/03/05 06:22:22;;;;;;;15.60;10.98;;;;;;;;;;4986469;28;20077;-65
2021/03/05 06:24:48;;;;;;;14.50;10.02;;;;;;;;;;4986071;28;20053;-65
2021/03/05 06:27:15;;;;;;;14.82;9.80;;;;;;;;;;4990860;28;20475;-65
2021/03/05 06:29:43;;;;;;;13.68;10.35;;;;;;;;;;4989567;28;20030;-65
2021/03/05 06:32:11;;;;;;;14.82;9.43;;;;;;;;;;4989544;28;20688;-65
2021/03/05 06:34:53;;;;;;;17.38;9.38;;;;;;;;;;4987736;28;20129;-64
2021/03/05 06:37:21;;;;;;;13.77;8.57;;;;;;;;;;4988416;28;20069;-64
2021/03/05 06:40:09;;;;;;;16.05;11.93;;;;;;;;;;4987495;28;20038;-64
2021/03/05 06:42:51;;;;;;;24.33;13.77;;;;;;;;;;4988095;28;20116;-64
2021/03/05 06:45:18;;;;;;;16.65;13.00;;;;;;;;;;4989169;28;20126;-64
2021/03/05 06:48:02;;;;;;;14.35;10.52;;;;;;;;;;4988408;28;20042;-64
2021/03/05 06:50:29;;;;;;;18.17;12.18;;;;;;;;;;4985581;28;20038;-64
2021/03/05 06:52:55;;;;;;;16.15;10.57;;;;;;;;;;4971760;28;20593;-64
2021/03/05 06:55:20;;;;;;;14.82;10.02;;;;;;;;;;4986750;28;20030;-64
2021/03/05 06:57:46;;;;;;;16.60;9.82;;;;;;;;;;4989133;28;20042;-64
2021/03/05 07:00:16;;;;;;;15.13;10.13;;;;;;;;;;4988981;28;20070;-64
2021/03/05 07:02:42;;;;;;;13.68;9.38;;;;;;;;;;4987926;28;20038;-64
2021/03/05 07:05:08;;;;;;;16.38;10.52;;;;;;;;;;4985282;28;20049;-64
2021/03/05 07:07:44;;;;;;;12.43;8.93;;;;;;;;;;4984988;28;20076;-64
2021/03/05 07:10:12;;;;;;;16.17;9.73;;;;;;;;;;4988286;28;20031;-64
2021/03/05 07:12:37;;;;;;;18.98;9.68;;;;;;;;;;4986990;28;20041;-64
2021/03/05 07:15:09;;;;;;;17.98;10.50;;;;;;;;;;4985480;28;20026;-64
2021/03/05 07:17:35;;;;;;;18.17;9.48;;;;;;;;;;4985783;28;20039;-64
2021/03/05 07:20:01;;;;;;;20.20;10.10;;;;;;;;;;4985556;28;20031;-65
2021/03/05 07:22:30;;;;;;;16.42;10.48;;;;;;;;;;4986531;28;20046;-65
2021/03/05 07:24:58;;;;;;;22.00;10.63;;;;;;;;;;4987267;28;20094;-65
2021/03/05 07:27:56;;;;;;;19.67;10.32;;;;;;;;;;4986106;28;20116;-64
2021/03/05 07:30:23;;;;;;;15.88;9.93;;;;;;;;;;4985223;28;20113;-65
2021/03/05 07:32:51;;;;;;;14.32;9.93;;;;;;;;;;4987279;28;20069;-65
2021/03/05 07:35:27;;;;;;;18.15;11.00;;;;;;;;;;4987484;28;20104;-65
2021/03/05 07:38:03;;;;;;;22.60;9.48;;;;;;;;;;4988230;28;20027;-65
2021/03/05 07:40:29;;;;;;;19.25;10.93;;;;;;;;;;4987122;28;20048;-65
2021/03/05 07:42:56;;;;;;;15.38;9.98;;;;;;;;;;4985342;28;20026;-65
2021/03/05 07:45:21;;;;;;;18.63;10.80;;;;;;;;;;4983237;28;20038;-65
2021/03/05 07:47:49;;;;;;;17.02;10.05;;;;;;;;;;4983194;28;20108;-64
2021/03/05 07:50:19;;;;;;;15.65;9.68;;;;;;;;;;4986936;28;20041;-65
2021/03/05 07:52:45;;;;;;;13.82;10.48;;;;;;;;;;4982181;28;20434;-65
2021/03/05 07:55:11;;;;;;;14.65;9.73;;;;;;;;;;4987056;28;20117;-65
2021/03/05 07:57:43;;;;;;;17.83;9.73;;;;;;;;;;4985911;28;20030;-64
2021/03/05 08:00:10;;;;;;;15.10;10.25;;;;;;;;;;4989007;28;20543;-66
2021/03/05 08:02:51;;;;;;;18.38;9.77;;;;;;;;;;4983795;28;20037;-63
2021/03/05 08:05:34;;;;;;;16.65;9.63;;;;;;;;;;4986751;28;20042;-64
2021/03/05 08:08:23;;;;;;;15.90;10.25;;;;;;;;;;4986384;28;20109;-65
2021/03/05 08:10:50;;;;;;;12.65;8.95;;;;;;;;;;4985778;28;20173;-65
2021/03/05 08:13:46;;;;;;;12.15;8.63;;;;;;;;;;4988587;28;20053;-64
2021/03/05 08:16:30;;;;;;;14.68;8.88;;;;;;;;;;4985942;28;20113;-64
2021/03/05 08:19:05;;;;;;;15.07;8.50;;;;;;;;;;4984900;28;20044;-65
2021/03/05 08:21:57;;;;;;;13.63;9.15;;;;;;;;;;4986349;28;20034;-65
2021/03/05 08:24:22;;;;;;;14.55;9.50;;;;;;;;;;4985656;28;20120;-65
2021/03/05 08:26:56;;;;;;;13.52;9.43;;;;;;;;;;4988532;28;20097;-65
2021/03/05 08:29:47;;;;;;;16.08;11.35;;;;;;;;;;4984716;28;20049;-65
2021/03/05 08:32:30;;;;;;;15.02;10.45;;;;;;;;;;4987208;28;20049;-65
2021/03/05 08:34:59;;;;;;;19.65;11.02;;;;;;;;;;4987507;28;20049;-65
2021/03/05 08:37:36;;;;;;;15.05;10.23;;;;;;;;;;4983449;28;20034;-65
2021/03/05 08:40:10;;;;;;;14.90;10.32;;;;;;;;;;4984798;28;20069;-66
2021/03/05 08:42:45;;;;;;;13.05;10.18;;;;;;;;;;4986384;28;20030;-66
2021/03/05 08:45:16;;;;;;;12.07;10.07;;;;;;;;;;4984341;28;20038;-65
2021/03/05 08:47:59;;;;;;;12.63;9.90;;;;;;;;;;4983143;28;20380;-65
2021/03/05 08:50:31;;;;;;;12.18;10.27;;;;;;;;;;4985808;28;20407;-65
2021/03/05 08:53:07;;;;;;;12.80;10.55;;;;;;;;;;4982380;28;20429;-65
2021/03/05 08:55:37;;;;;;;16.13;10.65;;;;;;;;;;4986115;28;20041;-65
2021/03/05 08:58:04;;;;;;;15.07;11.45;;;;;;;;;;4988838;28;20120;-65
2021/03/05 09:00:31;;;;;;;13.20;10.48;;;;;;;;;;4986776;28;20043;-65
2021/03/05 09:03:09;;;;;;;14.55;10.52;;;;;;;;;;5002099;28;20089;-65
2021/03/05 09:05:38;;;;;;;11.27;9.85;;;;;;;;;;4988506;28;20030;-65
2021/03/05 09:08:04;;;;;;;18.55;9.95;;;;;;;;;;4988966;28;20026;-65
2021/03/05 09:10:45;;;;;;;14.77;10.10;;;;;;;;;;4990786;28;20419;-65
2021/03/05 09:13:16;;;;;;;16.60;10.02;;;;;;;;;;4992495;28;20445;-65
2021/03/05 09:15:45;;;;;;;13.48;10.13;;;;;;;;;;4992163;28;20035;-65
2021/03/05 09:18:14;;;;;;;12.50;9.73;;;;;;;;;;4990036;28;20049;-65
2021/03/05 09:20:46;;;;;;;16.02;9.88;;;;;;;;;;4989603;28;20046;-65
2021/03/05 09:23:20;;;;;;;14.80;9.90;;;;;;;;;;4989887;28;20057;-64
2021/03/05 09:25:52;;;;;;;12.40;8.77;;;;;;;;;;4989825;28;20126;-65
2021/03/05 09:28:18;;;;;;;;;;;;;;;;;;4988596;28;20042;-66
2021/03/05 09:30:48;;;;;;;14.15;9.32;;;;;;;;;;4990043;28;20240;-66
2021/03/05 09:33:13;;;;;;;15.90;9.38;;;;;;;;;;4989529;28;20056;-66
2021/03/05 09:35:39;;;;;;;12.77;9.50;;;;;;;;;;4990721;28;20026;-66
2021/03/05 09:38:05;;;;;;;11.65;8.25;;;;;;;;;;4989928;28;20061;-65
2021/03/05 09:40:31;;;;;;;9.82;8.68;;;;;;;;;;4989117;28;20130;-66
2021/03/05 09:42:58;;;;;;;14.80;9.30;;;;;;;;;;4987808;28;20504;-66
2021/03/05 09:45:34;;;;;;;12.38;9.50;;;;;;;;;;4987360;28;21035;-66
2021/03/05 09:48:00;;;;;;;11.48;9.30;;;;;;;;;;4989322;28;20375;-66
2021/03/05 09:50:26;;;;;;;14.52;9.60;;;;;;;;;;4992029;28;20034;-66
2021/03/05 09:52:53;;;;;;;16.42;10.05;;;;;;;;;;4990150;28;20038;-66
2021/03/05 09:55:29;;;;;;;13.52;9.68;;;;;;;;;;4990462;28;20060;-66
2021/03/05 09:57:56;;;;;;;10.40;8.57;;;;;;;;;;4991723;28;20030;-66
2021/03/05 10:00:31;;;;;;;13.30;10.10;;;;;;;;;;4991678;28;20034;-66
2021/03/05 10:03:05;;;;;;;11.05;8.38;;;;;;;;;;4988347;28;20070;-66
2021/03/05 10:05:31;;;;;;;14.05;9.52;;;;;;;;;;4987607;28;20053;-67
2021/03/05 10:07:57;;;;;;;11.32;8.18;;;;;;;;;;4986136;28;20041;-66
2021/03/05 10:10:23;;;;;;;12.80;7.53;;;;;;;;;;4989327;28;20377;-66
2021/03/05 10:12:54;;;;;;;12.55;8.55;;;;;;;;;;4992139;28;20041;-66
2021/03/05 10:15:21;;;;;;;11.77;8.50;;;;;;;;;;4991168;28;20037;-66
2021/03/05 10:17:46;;;;;;;14.52;9.27;;;;;;;;;;4990548;28;20088;-66
2021/03/05 10:20:13;;;;;;;13.50;9.00;;;;;;;;;;4991437;28;20034;-66
2021/03/05 10:22:40;;;;;;;12.82;8.80;;;;;;;;;;4991320;28;20026;-67
2021/03/05 10:25:07;;;;;;;11.30;8.15;;;;;;;;;;4988389;28;20053;-66
2021/03/05 10:27:42;;;;;;;11.25;8.68;;;;;;;;;;4990992;28;20027;-66
2021/03/05 10:30:08;;;;;;;13.20;8.60;;;;;;;;;;4993081;28;20362;-66
2021/03/05 10:32:43;;;;;;;16.70;8.27;;;;;;;;;;4987557;28;20030;-66
2021/03/05 10:35:11;;;;;;;13.15;8.70;;;;;;;;;;4989448;28;20929;-66
2021/03/05 10:37:38;;;;;;;10.52;7.68;;;;;;;;;;4988862;28;20034;-66
2021/03/05 10:40:06;;;;;;;10.23;7.18;;;;;;;;;;4988549;28;20033;-66
2021/03/05 10:42:32;;;;;;;11.65;7.60;;;;;;;;;;4988144;28;20100;-66
2021/03/05 10:44:57;;;;;;;10.93;7.97;;;;;;;;;;4991249;28;20022;-66
2021/03/05 10:47:23;;;;;;;11.05;8.20;;;;;;;;;;4989457;28;20045;-66
2021/03/05 10:49:50;;;;;;;11.50;7.97;;;;;;;;;;4989906;28;20018;-66
2021/03/05 10:52:18;;;;;;;12.73;7.65;;;;;;;;;;4990073;28;20035;-66
2021/03/05 10:54:45;;;;;;;12.15;8.70;;;;;;;;;;4989826;28;20415;-66
2021/03/05 10:57:15;;;;;;;12.88;8.93;;;;;;;;;;4988712;28;20042;-66
2021/03/05 10:59:42;;;;;;;10.75;8.30;;;;;;;;;;4987983;28;20031;-66
2021/03/05 11:02:08;;;;;;;13.43;7.13;;;;;;;;;;4986935;28;20034;-66
2021/03/05 11:04:34;;;;;;;10.68;8.10;;;;;;;;;;4987227;28;20023;-66
2021/03/05 11:07:01;;;;;;;10.82;7.30;;;;;;;;;;4989647;28;20353;-66
2021/03/05 11:09:28;;;;;;;12.82;8.15;;;;;;;;;;4985485;28;20038;-66
2021/03/05 11:11:54;;;;;;;9.40;8.05;;;;;;;;;;4987370;28;20031;-66
2021/03/05 11:14:21;;;;;;;10.70;8.15;;;;;;;;;;4987039;28;20124;-66
2021/03/05 11:16:46;;;;;;;11.88;7.13;;;;;;;;;;4986755;28;20376;-66
2021/03/05 11:19:12;;;;;;;9.68;6.75;;;;;;;;;;4984783;28;20042;-66
2021/03/05 11:21:38;;;;;;;9.63;7.53;;;;;;;;;;4983858;28;20042;-66
2021/03/05 11:24:05;;;;;;;9.75;7.80;;;;;;;;;;4987490;28;20053;-66
2021/03/05 11:26:31;;;;;;;10.02;8.00;;;;;;;;;;4983932;28;20030;-66
2021/03/05 11:28:56;;;;;;;10.52;7.50;;;;;;;;;;4982470;28;20101;-66
2021/03/05 11:31:23;;;;;;;11.20;8.13;;;;;;;;;;4985750;28;20109;-66
2021/03/05 11:33:49;;;;;;;15.02;7.90;;;;;;;;;;4979521;28;20031;-67
2021/03/05 11:36:16;;;;;;;11.25;8.65;;;;;;;;;;4986831;28;20062;-66
2021/03/05 11:38:44;;;;;;;10.32;8.63;;;;;;;;;;4986294;28;20034;-66
2021/03/05 11:41:10;;;;;;;13.23;8.38;;;;;;;;;;4986920;28;20045;-66
2021/03/05 11:43:41;;;;;;;10.77;8.48;;;;;;;;;;4985877;28;20054;-66
2021/03/05 11:46:06;;;;;;;9.90;7.85;;;;;;;;;;4987609;28;20357;-66
2021/03/05 11:48:32;;;;;;;9.15;7.72;;;;;;;;;;4987301;28;20089;-66
2021/03/05 11:50:57;;;;;;;11.18;7.25;;;;;;;;;;4985735;28;20033;-66
2021/03/05 11:53:22;;;;;;;8.07;6.88;;;;;;;;;;4986653;28;20026;-66
2021/03/05 11:55:48;;;;;;;10.02;7.68;;;;;;;;;;4988213;28;20443;-66
2021/03/05 11:58:13;;;;;;;10.85;7.55;;;;;;;;;;4987151;28;20445;-65
2021/03/05 12:00:39;;;;;;;8.02;6.82;;;;;;;;;;4987094;28;20535;-65
2021/03/05 12:03:04;;;;;;;9.00;7.75;;;;;;;;;;4983311;28;20535;-66
2021/03/05 12:05:30;;;;;;;9.68;7.35;;;;;;;;;;4985964;28;20073;-66
2021/03/05 12:07:55;;;;;;;10.38;8.07;;;;;;;;;;4984810;28;20368;-66
2021/03/05 12:10:21;;;;;;;7.55;6.70;;;;;;;;;;4983890;28;20133;-66
2021/03/05 12:12:47;;;;;;;10.20;7.13;;;;;;;;;;4987225;28;20482;-66
2021/03/05 12:15:12;;;;;;;11.45;7.32;;;;;;;;;;4985458;28;20034;-66
2021/03/05 12:17:38;;;;;;;10.52;6.97;;;;;;;;;;4984678;28;20034;-66
2021/03/05 12:20:04;;;;;;;10.25;6.90;;;;;;;;;;4985623;28;20041;-66
2021/03/05 12:22:30;;;;;;;11.20;7.78;;;;;;;;;;4986781;28;20030;-66
2021/03/05 12:24:55;;;;;;;13.57;8.52;;;;;;;;;;4980245;28;20095;-66
2021/03/05 12:27:22;;;;;;;8.75;6.95;;;;;;;;;;4982909;28;20420;-66
2021/03/05 12:29:47;;;;;;;8.52;6.57;;;;;;;;;;4987671;28;20022;-66
2021/03/05 12:32:12;;;;;;;9.75;7.10;;;;;;;;;;4985740;28;20030;-67
2021/03/05 12:34:38;;;;;;;10.93;6.47;;;;;;;;;;4984048;28;20034;-67
2021/03/05 12:37:03;;;;;;;7.90;6.55;;;;;;;;;;4986791;28;20049;-66
2021/03/05 12:39:29;;;;;;;10.73;8.48;;;;;;;;;;4983256;28;20084;-67
2021/03/05 12:41:54;;;;;;;14.40;9.05;;;;;;;;;;4987024;28;20648;-66
2021/03/05 12:44:21;;;;;;;9.55;7.68;;;;;;;;;;4982379;28;20054;-66
2021/03/05 12:46:46;;;;;;;10.23;7.15;;;;;;;;;;4987170;28;20518;-67
2021/03/05 12:49:12;;;;;;;10.05;7.50;;;;;;;;;;4984505;28;20030;-66
2021/03/05 12:51:38;;;;;;;9.38;6.95;;;;;;;;;;4986658;28;20085;-67
2021/03/05 12:54:04;;;;;;;13.77;9.50;;;;;;;;;;4986557;28;20038;-67
2021/03/05 12:56:30;;;;;;;9.90;6.95;;;;;;;;;;4985005;28;20085;-67
2021/03/05 12:58:55;;;;;;;8.07;6.45;;;;;;;;;;4984755;28;20286;-67
2021/03/05 13:01:21;;;;;;;9.00;6.72;;;;;;;;;;4984863;28;20364;-67
2021/03/05 13:03:46;;;;;;;11.25;7.78;;;;;;;;;;4987148;28;20023;-67
2021/03/05 13:06:12;;;;;;;10.32;8.05;;;;;;;;;;4986941;28;20439;-67
2021/03/05 13:08:38;;;;;;;9.13;6.80;;;;;;;;;;4985604;28;20384;-67
2021/03/05 13:11:04;;;;;;;9.82;6.80;;;;;;;;;;4985161;28;20518;-67
2021/03/05 13:13:29;;;;;;;10.77;8.45;;;;;;;;;;4985183;28;20034;-67
2021/03/05 13:15:54;;;;;;;10.40;7.70;;;;;;;;;;4984079;28;20026;-67
2021/03/05 13:18:20;;;;;;;12.68;9.07;;;;;;;;;;4984220;28;20566;-67
2021/03/05 13:20:45;;;;;;;9.75;7.10;;;;;;;;;;4985232;28;20392;-67
2021/03/05 13:23:11;;;;;;;9.75;6.63;;;;;;;;;;4986738;28;20352;-67
2021/03/05 13:25:38;;;;;;;9.07;6.57;;;;;;;;;;4985686;28;20027;-66
2021/03/05 13:28:04;;;;;;;9.38;6.95;;;;;;;;;;4983483;28;20346;-66
2021/03/05 13:30:31;;;;;;;13.32;6.80;;;;;;;;;;4982707;28;20030;-67
2021/03/05 13:32:59;;;;;;;11.88;6.85;;;;;;;;;;4984320;28;20132;-65
2021/03/05 13:35:26;;;;;;;17.13;7.57;;;;;;;;;;4983214;28;20057;-66
2021/03/05 13:37:51;;;;;;;8.43;7.05;;;;;;;;;;4984070;28;20441;-66
2021/03/05 13:40:17;;;;;;;8.68;5.72;;;;;;;;;;4978565;28;20058;-66
2021/03/05 13:42:43;;;;;;;8.25;6.18;;;;;;;;;;4985877;28;20479;-66
2021/03/05 13:45:09;;;;;;;8.15;6.07;;;;;;;;;;4984693;28;20045;-66
2021/03/05 13:47:34;;;;;;;7.85;6.20;;;;;;;;;;4983731;28;20053;-66
2021/03/05 13:50:00;;;;;;;7.78;6.32;;;;;;;;;;4985648;28;20018;-66
2021/03/05 13:52:25;;;;;;;10.02;6.07;;;;;;;;;;4983492;28;20050;-66
2021/03/05 13:54:53;;;;;;;7.95;5.22;;;;;;;;;;4986839;28;20068;-66
2021/03/05 13:57:19;;;;;;;9.43;6.03;;;;;;;;;;4988019;28;20030;-66
2021/03/05 13:59:44;;;;;;;10.15;5.28;;;;;;;;;;4989870;28;20030;-66
2021/03/05 14:02:09;;;;;;;7.38;5.63;;;;;;;;;;4989751;28;20152;-64
2021/03/05 14:04:35;;;;;;;7.70;5.63;;;;;;;;;;4986202;28;20488;-66
2021/03/05 14:07:01;;;;;;;7.00;5.75;;;;;;;;;;4972855;28;20034;-65
2021/03/05 14:09:26;;;;;;;9.30;5.82;;;;;;;;;;4988688;28;20571;-65
2021/03/05 14:11:52;;;;;;;7.65;5.25;;;;;;;;;;4987006;28;20053;-66
2021/03/05 14:14:17;;;;;;;9.82;5.72;;;;;;;;;;4988407;28;20030;-66
2021/03/05 14:16:42;;;;;;;7.88;5.45;;;;;;;;;;4989374;28;20507;-66
2021/03/05 14:19:09;;;;;;;7.82;5.20;;;;;;;;;;4988297;28;20038;-66
2021/03/05 14:21:35;;;;;;;7.63;5.22;;;;;;;;;;4989366;28;20042;-66
2021/03/05 14:24:00;;;;;;;7.72;4.80;;;;;;;;;;4988977;28;20033;-65
2021/03/05 14:26:27;;;;;;;5.68;4.47;;;;;;;;;;4986613;28;20480;-66
2021/03/05 14:28:53;;;;;;;7.00;4.43;;;;;;;;;;4989371;28;20048;-65
2021/03/05 14:31:18;;;;;;;8.02;5.50;;;;;;;;;;4987408;28;20101;-66
2021/03/05 14:33:43;;;;;;;7.53;4.85;;;;;;;;;;4988905;28;20579;-67
2021/03/05 14:36:09;;;;;;;10.18;4.70;;;;;;;;;;4988880;28;20034;-66